Time;durP1;ratioP1;P1;durP2;ratioP2;P2;SDS_P1;SDS_P2;PMS_P1;PMS_P2;Temp;Humidity;BMP_temperature;BMP_pressure;BME280_temperature;BME280_humidity;BME280_pressure;Samples;Min_cycle;Max_cycle;Signal;HPM_P1;HPM_P2
2024/02/20 00:00:25;;;;;;;10.57;6.47;;;;;;;-6.26;100.00;100649.13;4981861;28;20042;-69
2024/02/20 00:02:52;;;;;;;12.67;6.47;;;;;;;-6.29;100.00;100645.75;4998150;28;20045;-68
2024/02/20 00:05:18;;;;;;;10.20;6.47;;;;;;;-6.27;100.00;100649.16;4998004;28;20471;-68
2024/02/20 00:07:44;;;;;;;10.77;6.77;;;;;;;-6.30;100.00;100649.19;4982032;28;20614;-68
2024/02/20 00:10:10;;;;;;;13.63;7.33;;;;;;;-6.36;100.00;100645.00;4997865;28;20060;-70
2024/02/20 00:12:39;;;;;;;13.17;8.80;;;;;;;-6.40;100.00;100645.94;4981700;28;20076;-70
2024/02/20 00:15:06;;;;;;;12.73;7.87;;;;;;;-6.38;100.00;100636.41;4981999;28;20500;-70
2024/02/20 00:17:35;;;;;;;16.47;8.60;;;;;;;-6.37;100.00;100645.03;5030358;28;20171;-70
2024/02/20 00:20:03;;;;;;;11.37;7.17;;;;;;;-6.39;100.00;100634.72;4996821;28;20045;-69
2024/02/20 00:22:29;;;;;;;17.23;8.03;;;;;;;-6.44;100.00;100628.78;4982361;28;20103;-68
2024/02/20 00:24:55;;;;;;;14.53;8.13;;;;;;;-6.41;100.00;100618.38;4982347;28;20045;-68
2024/02/20 00:27:21;;;;;;;11.30;7.33;;;;;;;-6.41;100.00;100618.38;4998392;28;20046;-69
2024/02/20 00:29:46;;;;;;;16.90;8.17;;;;;;;-6.33;100.00;100620.81;5014947;28;20074;-72
2024/02/20 00:32:13;;;;;;;15.43;8.60;;;;;;;-6.35;100.00;100622.59;5014894;28;20089;-68
2024/02/20 00:34:40;;;;;;;13.43;8.97;;;;;;;-6.36;100.00;100626.03;4982394;28;20064;-68
2024/02/20 00:37:06;;;;;;;19.13;9.97;;;;;;;-6.40;100.00;100617.53;5014727;28;20057;-68
2024/02/20 00:39:34;;;;;;;19.63;9.10;;;;;;;-6.38;100.00;100620.91;5031166;28;20049;-66
2024/02/20 00:42:01;;;;;;;17.70;9.67;;;;;;;-6.36;100.00;100615.72;5032559;28;20044;-67
2024/02/20 00:44:28;;;;;;;15.77;9.87;;;;;;;-6.41;100.00;100626.13;5016722;28;20052;-68
2024/02/20 00:46:54;;;;;;;18.10;10.90;;;;;;;-6.51;100.00;100622.03;5013879;28;20069;-69
2024/02/20 00:49:20;;;;;;;20.40;11.90;;;;;;;-6.51;100.00;100629.78;5035160;28;20475;-68
2024/02/20 00:51:46;;;;;;;18.67;11.67;;;;;;;-6.53;100.00;100630.72;5018189;28;20041;-67
2024/02/20 00:54:13;;;;;;;16.33;10.50;;;;;;;-6.56;100.00;100630.72;5034336;28;20040;-67
2024/02/20 00:56:39;;;;;;;16.87;10.43;;;;;;;-6.58;100.00;100632.50;5001716;28;20048;-67
2024/02/20 00:59:05;;;;;;;14.80;9.50;;;;;;;-6.59;100.00;100635.97;5018870;28;20432;-68
2024/02/20 01:01:31;;;;;;;15.33;9.40;;;;;;;-6.63;100.00;100635.19;5018241;28;20033;-67
2024/02/20 01:03:57;;;;;;;15.53;9.43;;;;;;;-6.66;100.00;100640.41;5017854;28;20051;-68
2024/02/20 01:06:22;;;;;;;15.37;9.57;;;;;;;-6.71;100.00;100634.47;4975476;28;20054;-69
2024/02/20 01:08:48;;;;;;;13.40;8.37;;;;;;;-6.74;100.00;100629.34;4943358;28;20532;-67
2024/02/20 01:11:14;;;;;;;15.87;9.20;;;;;;;-6.82;100.00;100635.50;4943867;28;20211;-68
2024/02/20 01:13:40;;;;;;;17.57;9.80;;;;;;;-6.89;100.00;100636.50;4975756;28;20037;-68
2024/02/20 01:16:06;;;;;;;16.67;9.40;;;;;;;-6.99;100.00;100630.63;4959814;28;20065;-68
2024/02/20 01:18:34;;;;;;;15.20;9.17;;;;;;;-6.99;100.00;100632.38;4944700;28;20407;-68
2024/02/20 01:21:01;;;;;;;13.93;9.00;;;;;;;-7.08;100.00;100625.63;4976780;28;20179;-67
2024/02/20 01:23:28;;;;;;;19.37;9.83;;;;;;;-7.15;100.00;100631.78;4977165;28;20072;-68
2024/02/20 01:25:55;;;;;;;16.47;9.47;;;;;;;-7.21;100.00;100630.13;4957410;28;20153;-68
2024/02/20 01:28:21;;;;;;;16.17;9.73;;;;;;;-7.28;100.00;100625.97;4973777;28;20054;-69
2024/02/20 01:30:47;;;;;;;17.67;10.30;;;;;;;-7.38;100.00;100637.28;4942361;28;20294;-67
2024/02/20 01:33:13;;;;;;;15.77;9.33;;;;;;;-7.42;100.00;100630.47;4977828;28;20046;-66
2024/02/20 01:35:41;;;;;;;17.13;9.20;;;;;;;-7.46;100.00;100636.56;4938573;28;20385;-66
2024/02/20 01:38:07;;;;;;;18.87;10.27;;;;;;;-7.51;100.00;100640.06;5005837;28;20680;-67
2024/02/20 01:40:36;;;;;;;19.43;9.97;;;;;;;-7.55;100.00;100631.50;5000302;28;20392;-66
2024/02/20 01:43:04;;;;;;;15.10;9.17;;;;;;;-7.56;100.00;100631.53;4983120;28;20148;-67
2024/02/20 01:45:34;;;;;;;15.27;9.13;;;;;;;-7.61;100.00;100641.09;5031705;28;20383;-67
2024/02/20 01:48:03;;;;;;;20.77;9.93;;;;;;;-7.63;100.00;100641.09;5015479;28;20283;-70
2024/02/20 01:50:34;;;;;;;14.23;9.30;;;;;;;-7.67;100.00;100630.84;5015785;28;20057;-68
2024/02/20 01:53:02;;;;;;;13.53;9.23;;;;;;;-7.75;100.00;100632.69;4976130;28;20295;-68
2024/02/20 01:55:29;;;;;;;15.93;8.90;;;;;;;-7.77;100.00;100634.41;4976411;28;20744;-68
2024/02/20 01:57:55;;;;;;;14.47;8.90;;;;;;;-7.76;100.00;100629.25;4992310;28;20768;-68
2024/02/20 02:00:22;;;;;;;16.53;8.60;;;;;;;-7.76;100.00;100625.78;4960242;28;20307;-70
2024/02/20 02:02:48;;;;;;;14.70;8.47;;;;;;;-7.80;100.00;100624.16;4965721;28;20308;-68
2024/02/20 02:05:15;;;;;;;14.67;8.60;;;;;;;-7.79;100.00;100626.72;4979437;28;20288;-68
2024/02/20 02:07:41;;;;;;;12.23;7.73;;;;;;;-7.84;100.00;100620.75;4963344;28;20362;-67
2024/02/20 02:10:07;;;;;;;13.70;7.90;;;;;;;-7.83;100.00;100609.59;5013027;28;20281;-67
2024/02/20 02:12:36;;;;;;;16.00;8.83;;;;;;;-7.80;100.00;100614.69;4980350;28;20460;-67
2024/02/20 02:15:02;;;;;;;15.07;8.53;;;;;;;-7.88;100.00;100606.22;4980021;28;20296;-68
2024/02/20 02:17:31;;;;;;;16.00;8.57;;;;;;;-7.84;100.00;100618.16;5012606;28;20281;-68
2024/02/20 02:19:57;;;;;;;15.30;8.23;;;;;;;-7.85;100.00;100611.31;4980013;28;20292;-69
2024/02/20 02:22:24;;;;;;;14.70;8.10;;;;;;;-7.88;100.00;100607.91;4979612;28;20037;-68
2024/02/20 02:24:51;;;;;;;15.63;8.03;;;;;;;-7.95;100.00;100622.59;5011145;28;20053;-71
2024/02/20 02:27:16;;;;;;;16.13;8.43;;;;;;;-8.01;100.00;100617.53;5016412;28;20288;-68
2024/02/20 02:29:43;;;;;;;14.70;7.87;;;;;;;-8.07;100.00;100609.88;5015855;28;20103;-69
2024/02/20 02:32:11;;;;;;;13.37;7.20;;;;;;;-8.18;100.00;100608.34;5000080;28;20311;-71
2024/02/20 02:34:38;;;;;;;13.63;7.67;;;;;;;-8.24;100.00;100616.19;5014811;28;20465;-72
2024/02/20 02:37:06;;;;;;;12.40;7.70;;;;;;;-8.31;100.00;100617.09;4966020;28;20365;-70
2024/02/20 02:39:32;;;;;;;13.10;8.00;;;;;;;-8.34;100.00;100615.41;4998170;28;20496;-68
2024/02/20 02:41:58;;;;;;;12.83;7.20;;;;;;;-8.37;100.00;100620.59;4981740;28;20331;-68
2024/02/20 02:44:23;;;;;;;11.87;7.30;;;;;;;-8.38;100.00;100615.47;5013759;28;20049;-69
2024/02/20 02:46:49;;;;;;;16.33;7.53;;;;;;;-8.41;100.00;100616.34;5014823;28;20130;-69
2024/02/20 02:49:15;;;;;;;14.33;7.60;;;;;;;-8.38;100.00;100616.34;4982423;28;20060;-70
2024/02/20 02:51:41;;;;;;;16.43;8.13;;;;;;;-8.40;100.00;100619.78;5015059;28;20640;-70
2024/02/20 02:54:09;;;;;;;16.43;8.03;;;;;;;-8.34;100.00;100610.28;4998320;28;20057;-71
2024/02/20 02:56:37;;;;;;;14.00;7.53;;;;;;;-8.41;100.00;100607.78;4982488;28;20076;-68
2024/02/20 02:59:05;;;;;;;15.07;7.57;;;;;;;-8.38;100.00;100593.16;4998327;28;20358;-70
2024/02/20 03:01:33;;;;;;;16.90;7.80;;;;;;;-8.38;100.00;100603.47;5014092;28;20361;-69
2024/02/20 03:04:00;;;;;;;15.33;8.43;;;;;;;-8.35;100.00;100594.84;4998188;28;20288;-68
2024/02/20 03:06:26;;;;;;;14.93;7.93;;;;;;;-8.29;100.00;100605.94;5031215;28;20387;-68
2024/02/20 03:08:52;;;;;;;12.50;7.07;;;;;;;-8.22;100.00;100606.69;5000849;28;20313;-72
2024/02/20 03:11:17;;;;;;;13.23;7.03;;;;;;;-8.19;100.00;100606.59;5017508;28;20052;-68
2024/02/20 03:13:45;;;;;;;15.70;7.90;;;;;;;-8.13;100.00;100607.38;5017271;28;20049;-69
2024/02/20 03:16:11;;;;;;;14.37;7.07;;;;;;;-8.10;100.00;100599.63;5017862;28;20280;-68
2024/02/20 03:18:38;;;;;;;13.17;7.80;;;;;;;-8.01;100.00;100614.97;5000726;28;20342;-68
2024/02/20 03:21:06;;;;;;;13.00;8.30;;;;;;;-8.05;100.00;100615.03;4997957;28;20099;-69
2024/02/20 03:23:32;;;;;;;20.07;8.67;;;;;;;-8.07;100.00;100611.63;5015272;28;20361;-69
2024/02/20 03:25:58;;;;;;;16.53;8.17;;;;;;;-8.12;100.00;100600.53;4998439;28;20284;-70
2024/02/20 03:28:25;;;;;;;14.77;7.00;;;;;;;-8.07;100.00;100603.91;4998295;28;20429;-71
2024/02/20 03:30:51;;;;;;;14.20;7.33;;;;;;;-8.05;100.00;100615.03;4999196;28;20314;-66
2024/02/20 03:33:21;;;;;;;20.53;9.10;;;;;;;-8.00;100.00;100613.25;5017363;28;20296;-64
2024/02/20 03:35:47;;;;;;;18.70;7.60;;;;;;;-8.07;100.00;100607.31;5018709;28;20291;-69
2024/02/20 03:38:13;;;;;;;15.50;7.93;;;;;;;-8.08;100.00;100605.63;5001455;28;20391;-69
2024/02/20 03:40:42;;;;;;;15.27;8.27;;;;;;;-8.11;100.00;100602.22;5000362;28;20049;-68
2024/02/20 03:43:08;;;;;;;16.93;8.70;;;;;;;-8.24;100.00;100606.69;4999456;28;20418;-68
2024/02/20 03:45:35;;;;;;;18.40;8.33;;;;;;;-8.34;100.00;100609.41;5015787;28;20276;-69
2024/02/20 03:48:00;;;;;;;23.33;8.97;;;;;;;-8.43;100.00;100599.22;4983287;28;20276;-70
2024/02/20 03:50:27;;;;;;;19.40;8.77;;;;;;;-8.46;100.00;100607.84;5015498;28;20571;-71
2024/02/20 03:52:53;;;;;;;19.63;8.83;;;;;;;-8.51;100.00;100601.88;5015481;28;20045;-75
2024/02/20 03:55:19;;;;;;;24.07;8.53;;;;;;;-8.52;100.00;100599.31;4998493;28;20796;-71
2024/02/20 03:57:47;;;;;;;22.40;8.90;;;;;;;-8.55;100.00;100607.94;4998444;28;20053;-70
2024/02/20 04:00:14;;;;;;;17.30;8.83;;;;;;;-8.59;100.00;100598.53;4984227;28;20303;-71
2024/02/20 04:02:42;;;;;;;13.87;8.10;;;;;;;-8.61;100.00;100604.56;4995492;28;20287;-72
2024/02/20 04:05:12;;;;;;;21.33;9.00;;;;;;;-8.68;100.00;100603.78;4988617;28;20411;-72
2024/02/20 04:07:46;;;;;;;14.77;8.60;;;;;;;-8.68;100.00;100602.91;4995636;28;20284;-72
2024/02/20 04:10:13;;;;;;;33.37;8.53;;;;;;;-8.72;100.00;100609.84;4989944;28;20710;-72
2024/02/20 04:12:41;;;;;;;23.20;7.30;;;;;;;-8.70;100.00;100614.97;4994899;28;20296;-72
2024/02/20 04:15:12;;;;;;;22.10;7.67;;;;;;;-8.71;100.00;100602.94;4971986;28;20810;-73
2024/02/20 04:17:39;;;;;;;15.50;7.22;;;;;;;-8.79;100.00;100605.59;4989467;28;20387;-74
2024/02/20 04:20:11;;;;;;;17.00;7.90;;;;;;;-8.78;100.00;100611.63;5004482;28;20450;-70
2024/02/20 04:22:40;;;;;;;14.13;7.80;;;;;;;-8.77;100.00;100613.31;5014315;28;20678;-68
2024/02/20 04:25:07;;;;;;;15.53;8.13;;;;;;;-8.84;100.00;100603.09;5015153;28;20345;-68
2024/02/20 04:27:34;;;;;;;14.23;7.30;;;;;;;-8.86;100.00;100614.28;5017203;28;20344;-68
2024/02/20 04:30:02;;;;;;;13.77;7.67;;;;;;;-8.87;100.00;100625.41;5017627;28;20291;-69
2024/02/20 04:32:33;;;;;;;15.07;7.32;;;;;;;-8.93;100.00;100626.34;5022830;28;20304;-70
2024/02/20 04:34:59;;;;;;;11.73;7.43;;;;;;;-9.03;100.00;100629.00;5024841;28;20132;-68
2024/02/20 04:37:26;;;;;;;13.23;6.73;;;;;;;-9.02;100.00;100620.41;5000366;28;20279;-69
2024/02/20 04:39:52;;;;;;;13.77;7.43;;;;;;;-9.05;100.00;100639.31;5001412;28;20766;-69
2024/02/20 04:42:21;;;;;;;13.20;6.90;;;;;;;-9.08;100.00;100629.03;4998703;28;20060;-68
2024/02/20 04:44:50;;;;;;;14.37;6.90;;;;;;;-9.08;100.00;100628.19;4981541;28;20065;-66
2024/02/20 04:47:17;;;;;;;17.85;7.57;;;;;;;-9.20;100.00;100633.44;4993717;28;20803;-66
2024/02/20 04:49:43;;;;;;;14.00;6.83;;;;;;;-9.15;100.00;100623.97;4945596;28;20141;-66
2024/02/20 04:52:10;;;;;;;12.40;6.73;;;;;;;-9.15;100.00;100636.84;4961644;28;20124;-68
2024/02/20 04:54:37;;;;;;;13.07;6.20;;;;;;;-9.16;100.00;100629.97;4961975;28;20285;-67
2024/02/20 04:57:03;;;;;;;13.43;6.70;;;;;;;-9.15;100.00;100629.94;5009863;28;20288;-67
2024/02/20 04:59:28;;;;;;;13.53;5.87;;;;;;;-9.13;100.00;100627.38;4981196;28;20144;-66
2024/02/20 05:01:58;;;;;;;14.37;6.63;;;;;;;-9.09;100.00;100637.66;4982037;28;20371;-67
2024/02/20 05:04:26;;;;;;;13.37;7.33;;;;;;;-9.12;100.00;100641.94;4995965;28;20139;-68
2024/02/20 05:06:56;;;;;;;15.97;6.90;;;;;;;-9.18;100.00;100637.69;4981836;28;20276;-67
2024/02/20 05:09:22;;;;;;;16.58;6.88;;;;;;;-9.19;100.00;100632.56;4998413;28;20339;-67
2024/02/20 05:11:52;;;;;;;15.93;7.60;;;;;;;-9.18;100.00;100642.00;4997789;28;20106;-67
2024/02/20 05:14:17;;;;;;;17.90;7.23;;;;;;;-9.20;100.00;100633.44;4981589;28;20084;-68
2024/02/20 05:16:44;;;;;;;13.83;6.23;;;;;;;-9.18;100.00;100636.84;5001097;28;20287;-68
2024/02/20 05:19:10;;;;;;;13.63;6.80;;;;;;;-9.15;100.00;100639.41;5001492;28;20299;-68
2024/02/20 05:21:36;;;;;;;14.00;6.80;;;;;;;-9.15;100.00;100647.94;5000260;28;20053;-67
2024/02/20 05:24:02;;;;;;;14.77;6.50;;;;;;;-9.10;100.00;100647.94;4993324;28;20119;-66
2024/02/20 05:26:28;;;;;;;12.60;6.80;;;;;;;-9.08;100.00;100646.19;4973887;28;20293;-73
2024/02/20 05:28:54;;;;;;;16.53;6.50;;;;;;;-9.08;100.00;100654.78;4974037;28;20508;-67
2024/02/20 05:31:30;;;;;;;12.63;6.60;;;;;;;-8.96;100.00;100648.66;4957681;28;20404;-67
2024/02/20 05:33:57;;;;;;;13.33;7.27;;;;;;;-8.97;100.00;100649.53;4974702;28;20057;-66
2024/02/20 05:36:25;;;;;;;12.20;6.47;;;;;;;-9.02;100.00;100644.44;4974115;28;20300;-69
2024/02/20 05:38:52;;;;;;;12.10;6.60;;;;;;;-8.95;100.00;100658.09;4958280;28;20795;-70
2024/02/20 05:41:19;;;;;;;17.83;7.37;;;;;;;-8.97;100.00;100641.81;4974161;28;20403;-75
2024/02/20 05:43:45;;;;;;;12.80;6.10;;;;;;;-8.99;100.00;100640.97;4973921;28;20294;-70
2024/02/20 05:46:11;;;;;;;11.77;6.17;;;;;;;-8.97;100.00;100640.09;4990056;28;20647;-73
2024/02/20 05:48:37;;;;;;;13.20;6.87;;;;;;;-8.97;100.00;100646.97;4973958;28;20364;-70
2024/02/20 05:51:03;;;;;;;15.53;6.07;;;;;;;-8.96;100.00;100638.38;4990180;28;20042;-71
2024/02/20 05:53:30;;;;;;;11.67;6.07;;;;;;;-8.95;100.00;100640.94;4958393;28;20073;-68
2024/02/20 05:55:56;;;;;;;9.97;5.90;;;;;;;-8.93;100.00;100638.34;5018818;28;20160;-71
2024/02/20 05:58:22;;;;;;;14.23;7.27;;;;;;;-8.95;100.00;100646.06;5050013;28;20622;-71
2024/02/20 06:00:48;;;;;;;13.13;6.70;;;;;;;-8.93;100.00;100644.34;5049104;28;20048;-73
2024/02/20 06:03:13;;;;;;;11.07;6.03;;;;;;;-8.89;100.00;100635.72;5048910;28;20083;-72
2024/02/20 06:05:39;;;;;;;13.00;5.90;;;;;;;-8.90;100.00;100639.16;5050414;28;20048;-70
2024/02/20 06:08:05;;;;;;;10.40;5.63;;;;;;;-8.84;100.00;100646.84;5049199;28;20041;-73
2024/02/20 06:10:31;;;;;;;12.33;6.13;;;;;;;-8.84;100.00;100648.56;5049684;28;20128;-73
2024/02/20 06:12:57;;;;;;;10.30;5.87;;;;;;;-8.78;100.00;100657.94;5016326;28;20375;-76
2024/02/20 06:15:22;;;;;;;15.27;6.30;;;;;;;-8.76;100.00;100649.34;5032893;28;20483;-74
2024/02/20 06:17:51;;;;;;;17.10;6.43;;;;;;;-8.72;100.00;100656.19;5051360;28;20504;-78
2024/02/20 06:20:18;;;;;;;12.07;6.17;;;;;;;-8.68;100.00;100662.13;5052876;28;20476;-74
2024/02/20 06:22:43;;;;;;;12.00;6.37;;;;;;;-8.68;100.00;100654.41;5058292;28;20287;-76
2024/02/20 06:25:10;;;;;;;12.50;5.93;;;;;;;-8.64;100.00;100656.94;5061775;28;20414;-75
2024/02/20 06:27:38;;;;;;;13.63;6.87;;;;;;;-8.64;100.00;100667.22;5060385;28;20056;-76
2024/02/20 06:30:11;;;;;;;15.27;6.77;;;;;;;-8.56;100.00;100665.44;5026965;28;20271;-78
2024/02/20 06:32:39;;;;;;;14.13;7.10;;;;;;;-8.51;100.00;100676.56;5057637;28;20669;-77
2024/02/20 06:35:08;;;;;;;13.63;6.63;;;;;;;-8.48;100.00;100673.94;5056318;28;20363;-77
2024/02/20 06:37:34;;;;;;;12.07;6.13;;;;;;;-8.37;100.00;100673.84;5051789;28;20345;-77
2024/02/20 06:40:00;;;;;;;11.70;6.07;;;;;;;-8.35;100.00;100672.09;5044057;28;20287;-70
2024/02/20 06:42:29;;;;;;;12.33;6.20;;;;;;;-8.29;100.00;100672.91;5054024;28;20390;-75
2024/02/20 06:44:56;;;;;;;12.90;5.83;;;;;;;-8.18;100.00;100672.75;5055092;28;20330;-79
2024/02/20 06:47:21;;;;;;;11.97;5.50;;;;;;;-8.09;100.00;100670.06;5054258;28;20831;-78
2024/02/20 06:49:47;;;;;;;13.80;6.57;;;;;;;-8.05;100.00;100676.88;5053177;28;20291;-78
2024/02/20 06:52:13;;;;;;;11.83;6.13;;;;;;;-7.91;100.00;100678.44;5052867;28;20053;-76
2024/02/20 06:54:39;;;;;;;9.47;5.50;;;;;;;-7.84;100.00;100674.88;5044100;28;20068;-77
2024/02/20 06:57:05;;;;;;;11.00;5.57;;;;;;;-7.68;100.00;100683.28;5034515;28;20468;-77
2024/02/20 06:59:31;;;;;;;12.17;5.67;;;;;;;-7.66;100.00;100685.00;5000586;28;20076;-68
2024/02/20 07:01:58;;;;;;;13.73;5.60;;;;;;;-7.60;100.00;100684.91;5033723;28;20468;-76
2024/02/20 07:04:23;;;;;;;10.87;5.80;;;;;;;-7.46;100.00;100684.72;4999907;28;20100;-77
2024/02/20 07:06:49;;;;;;;10.77;5.90;;;;;;;-7.35;100.00;100690.56;5036012;28;20045;-75
2024/02/20 07:09:15;;;;;;;15.90;6.53;;;;;;;-7.21;100.00;100699.81;5040854;28;20048;-76
2024/02/20 07:11:47;;;;;;;11.77;6.10;;;;;;;-6.99;100.00;100690.00;5037229;28;20478;-76
2024/02/20 07:14:15;;;;;;;13.40;6.10;;;;;;;-6.91;100.00;100695.06;5035020;28;20136;-75
2024/02/20 07:16:44;;;;;;;12.73;5.83;;;;;;;-6.62;100.00;100696.28;5003603;28;20064;-76
2024/02/20 07:19:10;;;;;;;12.97;6.47;;;;;;;-6.32;100.00;100690.56;5035038;28;20132;-71
2024/02/20 07:21:36;;;;;;;15.47;7.60;;;;;;;-5.79;100.00;100700.72;5049477;28;20144;-72
2024/02/20 07:24:03;;;;;;;13.70;7.53;;;;;;;-4.76;100.00;100699.25;5016334;28;20136;-67
2024/02/20 07:26:29;;;;;;;14.13;7.70;;;;;;;-3.17;100.00;100693.09;5033069;28;20091;-74
2024/02/20 07:28:56;;;;;;;11.87;6.93;;;;;;;-1.43;100.00;100701.81;4999259;28;20050;-75
2024/02/20 07:31:24;;;;;;;12.10;7.23;;;;;;;0.14;100.00;100710.09;5032982;28;20045;-74
2024/02/20 07:33:51;;;;;;;11.07;7.13;;;;;;;1.26;100.00;100692.69;4982890;28;20094;-75
2024/02/20 07:36:17;;;;;;;12.70;7.45;;;;;;;2.17;100.00;100691.53;5015656;28;20045;-75
2024/02/20 07:38:44;;;;;;;12.20;6.90;;;;;;;2.88;100.00;100684.13;5034479;28;20098;-75
2024/02/20 07:41:09;;;;;;;12.57;7.72;;;;;;;3.58;100.00;100674.88;5033102;28;20046;-74
2024/02/20 07:43:36;;;;;;;12.82;7.03;;;;;;;4.15;100.00;100679.34;5032176;28;20041;-76
2024/02/20 07:46:02;;;;;;;10.30;7.10;;;;;;;4.55;100.00;100668.91;5033014;28;20271;-75
2024/02/20 07:48:28;;;;;;;9.50;6.10;;;;;;;5.05;100.00;100673.63;5031764;28;20210;-76
2024/02/20 07:50:54;;;;;;;12.70;6.90;;;;;;;5.24;100.00;100684.66;4982661;28;20128;-76
2024/02/20 07:53:20;;;;;;;9.90;5.53;;;;;;;5.03;100.00;100686.03;5031728;28;20198;-75
2024/02/20 07:55:47;;;;;;;8.55;5.30;;;;;;;3.90;100.00;100673.84;4998876;28;20048;-77
2024/02/20 07:58:13;;;;;;;11.75;6.50;;;;;;;2.33;96.84;100669.66;5032048;28;20075;-75
2024/02/20 08:00:38;;;;;;;9.45;6.03;;;;;;;1.07;100.00;100671.78;5030759;28;20132;-75
2024/02/20 08:03:04;;;;;;;12.27;5.50;;;;;;;0.29;100.00;100656.31;5014732;28;20146;-74
2024/02/20 08:05:30;;;;;;;10.80;6.40;;;;;;;-0.04;100.00;100656.91;5032285;28;20197;-72
2024/02/20 08:07:56;;;;;;;9.27;6.63;;;;;;;0.23;100.00;100659.22;5031742;28;20110;-70
2024/02/20 08:10:22;;;;;;;8.87;6.27;;;;;;;1.15;100.00;100655.72;5030895;28;20476;-73
2024/02/20 08:12:48;;;;;;;10.93;6.53;;;;;;;1.45;100.00;100662.03;5013754;28;20045;-75
2024/02/20 08:15:14;;;;;;;12.20;6.20;;;;;;;1.16;100.00;100678.31;5031886;28;20041;-75
2024/02/20 08:17:40;;;;;;;9.97;5.50;;;;;;;0.59;100.00;100665.38;5032125;28;20052;-75
2024/02/20 08:20:06;;;;;;;11.37;6.53;;;;;;;-0.25;100.00;100680.47;5030995;28;20033;-75
2024/02/20 08:22:32;;;;;;;14.63;6.77;;;;;;;-0.90;100.00;100664.94;4997814;28;20041;-74
2024/02/20 08:24:58;;;;;;;11.90;5.90;;;;;;;-1.35;100.00;100658.91;5030254;28;20191;-74
2024/02/20 08:27:24;;;;;;;13.40;6.30;;;;;;;-1.66;100.00;100663.56;5031355;28;20361;-74
2024/02/20 08:29:50;;;;;;;21.60;6.47;;;;;;;-1.80;100.00;100660.66;5014497;28;20049;-75
2024/02/20 08:32:17;;;;;;;14.60;6.83;;;;;;;-1.84;100.00;100657.31;5014406;28;20053;-75
2024/02/20 08:34:43;;;;;;;12.20;6.23;;;;;;;-1.63;100.00;100671.31;5013492;28;20487;-74
2024/02/20 08:37:08;;;;;;;15.00;7.40;;;;;;;-1.64;100.00;100659.16;5014188;28;20052;-75
2024/02/20 08:39:35;;;;;;;13.47;6.30;;;;;;;-1.50;100.00;100650.81;5014233;28;20105;-67
2024/02/20 08:42:03;;;;;;;11.07;5.80;;;;;;;-1.31;100.00;100649.22;5013345;28;20072;-75
2024/02/20 08:44:29;;;;;;;11.30;5.60;;;;;;;-0.99;100.00;100647.06;5031547;28;20498;-76
2024/02/20 08:46:56;;;;;;;11.20;8.00;;;;;;;-0.21;100.00;100648.09;5013975;28;20140;-77
2024/02/20 08:49:21;;;;;;;14.57;7.50;;;;;;;1.16;100.00;100642.56;5030887;28;20041;-68
2024/02/20 08:51:47;;;;;;;9.40;6.50;;;;;;;2.72;100.00;100649.16;4981308;28;20444;-73
2024/02/20 08:54:15;;;;;;;12.73;8.15;;;;;;;3.87;100.00;100653.00;5030545;28;20480;-71
2024/02/20 08:56:41;;;;;;;10.95;6.88;;;;;;;4.79;100.00;100656.00;4996286;28;20797;-72
2024/02/20 08:59:08;;;;;;;9.50;6.85;;;;;;;5.90;100.00;100656.53;5012748;28;20065;-72
2024/02/20 09:01:37;;;;;;;12.40;6.30;;;;;;;6.67;100.00;100654.56;5009268;28;20045;-73
2024/02/20 09:04:03;;;;;;;9.52;6.38;;;;;;;7.09;100.00;100640.09;4977071;28;20053;-72
2024/02/20 09:06:29;;;;;;;13.40;6.35;;;;;;;7.61;95.76;100656.41;5048375;28;20147;-75
2024/02/20 09:08:55;;;;;;;6.47;5.47;;;;;;;7.70;87.12;100647.81;5015695;28;20275;-75
2024/02/20 09:11:21;;;;;;;6.82;5.03;;;;;;;7.85;85.90;100637.88;5048415;28;20407;-72
2024/02/20 09:13:47;;;;;;;7.32;4.93;;;;;;;8.22;79.58;100644.69;4999153;28;20049;-74
2024/02/20 09:16:14;;;;;;;5.93;4.80;;;;;;;8.33;72.56;100656.13;5032108;28;20522;-74
2024/02/20 09:18:40;;;;;;;5.28;4.78;;;;;;;8.28;75.00;100631.84;5032710;28;20087;-74
2024/02/20 09:21:07;;;;;;;5.15;3.97;;;;;;;8.31;76.11;100651.94;5033860;28;20080;-71
2024/02/20 09:23:37;;;;;;;6.00;4.88;;;;;;;8.36;70.96;100634.72;5033279;28;20048;-72
2024/02/20 09:26:05;;;;;;;8.07;4.45;;;;;;;8.49;67.90;100639.91;5000696;28;20082;-74
2024/02/20 09:28:33;;;;;;;5.50;4.32;;;;;;;8.71;67.87;100645.22;5049798;28;20110;-77
2024/02/20 09:30:59;;;;;;;6.22;4.50;;;;;;;8.56;65.54;100641.94;5069131;28;20483;-77
2024/02/20 09:33:26;;;;;;;5.53;4.97;;;;;;;8.47;63.80;100641.84;5053053;28;20071;-76
2024/02/20 09:35:52;;;;;;;5.10;4.60;;;;;;;8.35;63.47;100643.63;5088966;28;20141;-76
2024/02/20 09:38:18;;;;;;;5.70;5.20;;;;;;;7.96;59.80;100640.56;5055097;28;20114;-75
2024/02/20 09:40:44;;;;;;;5.50;5.00;;;;;;;8.04;60.32;100643.47;5088202;28;20040;-75
2024/02/20 09:43:10;;;;;;;5.90;5.20;;;;;;;7.76;60.43;100630.66;5027384;28;20431;-75
2024/02/20 09:45:40;;;;;;;7.82;4.43;;;;;;;7.82;61.00;100638.97;5030540;28;20107;-77
2024/02/20 09:48:09;;;;;;;4.20;3.80;;;;;;;7.57;58.75;100654.97;4998356;28;20049;-78
2024/02/20 09:50:37;;;;;;;5.82;3.17;;;;;;;6.47;57.86;100657.75;5013000;28;20041;-74
2024/02/20 09:53:03;;;;;;;4.65;3.90;;;;;;;5.30;65.14;100613.16;5032204;28;20396;-77
2024/02/20 09:55:29;;;;;;;3.42;3.13;;;;;;;4.47;71.81;100618.56;5016853;28;20050;-74
2024/02/20 09:57:57;;;;;;;5.72;3.08;;;;;;;3.65;76.97;100623.66;5017030;28;20048;-74
2024/02/20 10:00:24;;;;;;;5.40;3.88;;;;;;;3.11;88.37;100610.19;5018044;28;20103;-73
2024/02/20 10:02:52;;;;;;;4.95;3.35;;;;;;;2.63;94.37;100619.97;5017170;28;20119;-74
2024/02/20 10:05:18;;;;;;;5.63;3.33;;;;;;;2.07;99.07;100614.31;4984480;28;20046;-73
2024/02/20 10:07:44;;;;;;;5.20;3.50;;;;;;;1.53;100.00;100605.78;5035346;28;20103;-72
2024/02/20 10:10:15;;;;;;;4.23;3.60;;;;;;;0.93;100.00;100615.81;5019562;28;20077;-75
2024/02/20 10:12:41;;;;;;;4.63;3.13;;;;;;;0.45;100.00;100616.34;5034777;28;20060;-74
2024/02/20 10:15:08;;;;;;;4.40;2.97;;;;;;;0.02;100.00;100608.78;5019359;28;20094;-75
2024/02/20 10:17:36;;;;;;;3.93;3.00;;;;;;;-0.10;100.00;100594.53;5018944;28;20175;-76
2024/02/20 10:20:08;;;;;;;4.37;3.03;;;;;;;-0.34;100.00;100608.63;5002331;28;20394;-74
2024/02/20 10:22:34;;;;;;;4.17;3.23;;;;;;;-0.63;100.00;100593.38;5051890;28;20064;-74
2024/02/20 10:25:04;;;;;;;4.33;2.83;;;;;;;-0.81;100.00;100607.19;5052040;28;20375;-73
2024/02/20 10:27:31;;;;;;;4.97;3.00;;;;;;;-1.12;100.00;100606.75;5017953;28;20118;-73
2024/02/20 10:29:57;;;;;;;6.53;3.03;;;;;;;-1.17;100.00;100587.81;5018218;28;20407;-74
2024/02/20 10:32:23;;;;;;;4.27;2.70;;;;;;;-1.11;100.00;100605.84;5056753;28;20041;-73
2024/02/20 10:35:09;;;;;;;4.57;2.60;;;;;;;-1.26;100.00;100618.63;5055068;28;20091;-76
2024/02/20 10:37:36;;;;;;;4.30;2.80;;;;;;;-1.35;100.00;100604.19;5054989;28;20387;-74
2024/02/20 10:40:08;;;;;;;3.37;2.50;;;;;;;-1.41;100.00;100588.81;5053402;28;20055;-75
2024/02/20 10:42:35;;;;;;;4.07;2.60;;;;;;;-1.45;100.00;100584.63;5037015;28;20090;-72
2024/02/20 10:45:11;;;;;;;7.97;2.60;;;;;;;-1.43;100.00;100606.25;5053113;28;20047;-73
2024/02/20 10:47:45;;;;;;;5.50;2.97;;;;;;;-1.36;100.00;100592.09;5043563;28;20534;-71
2024/02/20 10:50:15;;;;;;;4.63;4.10;;;;;;;-0.88;100.00;100590.13;5066266;28;20037;-71
2024/02/20 10:52:42;;;;;;;5.00;4.50;;;;;;;-0.06;100.00;100603.03;5059866;28;20040;-72
2024/02/20 10:55:12;;;;;;;3.97;2.90;;;;;;;0.25;100.00;100602.53;5005140;28;20044;-74
2024/02/20 10:57:39;;;;;;;4.73;3.33;;;;;;;0.51;100.00;100604.78;5054522;28;20052;-74
2024/02/20 11:00:10;;;;;;;4.73;2.83;;;;;;;1.11;100.00;100594.84;5054525;28;20079;-73
2024/02/20 11:02:41;;;;;;;5.07;4.57;;;;;;;1.98;100.00;100580.75;5054550;28;20041;-71
2024/02/20 11:05:10;;;;;;;4.47;3.67;;;;;;;2.51;100.00;100604.91;5051343;28;20056;-74
2024/02/20 11:07:36;;;;;;;5.00;2.40;;;;;;;1.87;100.00;100615.38;5052413;28;20041;-74
2024/02/20 11:10:06;;;;;;;3.17;2.30;;;;;;;1.20;100.00;100607.47;5052189;28;20053;-72
2024/02/20 11:12:33;;;;;;;3.83;2.57;;;;;;;0.69;100.00;100603.91;5017893;28;20100;-73